sensor_id;sensor_type;location;lat;lon;timestamp;pressure;altitude;pressure_sealevel;temperature;humidity
24422;BME280;12600;53.326;-6.298;2023-01-28T00:01:11;102871.19;;;6.31;70.28
24422;BME280;12600;53.326;-6.298;2023-01-28T00:04:00;102885.50;;;6.38;70.52
24422;BME280;12600;53.326;-6.298;2023-01-28T00:06:51;102892.53;;;6.45;70.59
24422;BME280;12600;53.326;-6.298;2023-01-28T00:09:40;102893.94;;;6.48;70.57
24422;BME280;12600;53.326;-6.298;2023-01-28T00:12:30;102891.31;;;6.60;70.45
24422;BME280;12600;53.326;-6.298;2023-01-28T00:15:19;102881.19;;;6.67;70.34
24422;BME280;12600;53.326;-6.298;2023-01-28T00:18:08;102887.00;;;6.70;70.45
24422;BME280;12600;53.326;-6.298;2023-01-28T00:20:58;102877.34;;;6.75;70.35
24422;BME280;12600;53.326;-6.298;2023-01-28T00:23:51;102859.81;;;6.70;70.09
24422;BME280;12600;53.326;-6.298;2023-01-28T00:26:41;102877.78;;;6.71;69.96
24422;BME280;12600;53.326;-6.298;2023-01-28T00:29:30;102864.34;;;6.77;69.47
24422;BME280;12600;53.326;-6.298;2023-01-28T00:32:19;102863.13;;;6.72;69.58
24422;BME280;12600;53.326;-6.298;2023-01-28T00:35:13;102857.59;;;6.67;70.19
24422;BME280;12600;53.326;-6.298;2023-01-28T00:38:02;102871.16;;;6.67;69.80
24422;BME280;12600;53.326;-6.298;2023-01-28T00:40:54;102879.91;;;6.69;70.04
24422;BME280;12600;53.326;-6.298;2023-01-28T00:43:44;102879.38;;;6.61;70.02
24422;BME280;12600;53.326;-6.298;2023-01-28T00:46:33;102891.44;;;6.65;70.33
24422;BME280;12600;53.326;-6.298;2023-01-28T00:49:22;102881.88;;;6.62;70.46
24422;BME280;12600;53.326;-6.298;2023-01-28T00:52:12;102876.22;;;6.64;69.98
24422;BME280;12600;53.326;-6.298;2023-01-28T00:55:02;102871.28;;;6.72;70.58
24422;BME280;12600;53.326;-6.298;2023-01-28T00:57:53;102863.13;;;6.72;70.38
24422;BME280;12600;53.326;-6.298;2023-01-28T01:00:42;102853.09;;;6.73;70.70
24422;BME280;12600;53.326;-6.298;2023-01-28T01:03:31;102851.69;;;6.70;70.66
24422;BME280;12600;53.326;-6.298;2023-01-28T01:06:21;102848.72;;;6.72;70.73
24422;BME280;12600;53.326;-6.298;2023-01-28T01:09:11;102837.34;;;6.63;71.09
24422;BME280;12600;53.326;-6.298;2023-01-28T01:12:00;102848.06;;;6.77;71.31
24422;BME280;12600;53.326;-6.298;2023-01-28T01:14:51;102839.31;;;6.75;71.35
24422;BME280;12600;53.326;-6.298;2023-01-28T01:17:42;102822.53;;;6.78;71.09
24422;BME280;12600;53.326;-6.298;2023-01-28T01:20:32;102821.00;;;6.82;70.91
24422;BME280;12600;53.326;-6.298;2023-01-28T01:23:27;102822.53;;;6.78;70.95
24422;BME280;12600;53.326;-6.298;2023-01-28T01:26:17;102829.63;;;6.79;71.39
24422;BME280;12600;53.326;-6.298;2023-01-28T01:29:06;102822.78;;;6.76;71.39
24422;BME280;12600;53.326;-6.298;2023-01-28T01:31:58;102828.56;;;6.80;71.95
24422;BME280;12600;53.326;-6.298;2023-01-28T01:34:47;102785.06;;;6.68;71.78
24422;BME280;12600;53.326;-6.298;2023-01-28T01:37:37;102813.59;;;6.89;72.35
24422;BME280;12600;53.326;-6.298;2023-01-28T01:40:28;102808.88;;;6.84;72.30
24422;BME280;12600;53.326;-6.298;2023-01-28T01:43:21;102778.91;;;6.61;71.90
24422;BME280;12600;53.326;-6.298;2023-01-28T01:46:11;102796.88;;;6.73;73.07
24422;BME280;12600;53.326;-6.298;2023-01-28T01:49:11;102821.63;;;6.84;72.60
24422;BME280;12600;53.326;-6.298;2023-01-28T01:52:06;102823.72;;;6.82;72.82
24422;BME280;12600;53.326;-6.298;2023-01-28T01:55:00;102824.34;;;6.84;72.94
24422;BME280;12600;53.326;-6.298;2023-01-28T01:57:54;102829.16;;;6.82;72.82
24422;BME280;12600;53.326;-6.298;2023-01-28T02:00:44;102818.75;;;6.79;73.64
24422;BME280;12600;53.326;-6.298;2023-01-28T02:03:42;102791.78;;;6.65;73.95
24422;BME280;12600;53.326;-6.298;2023-01-28T02:06:34;102821.31;;;6.73;74.18
24422;BME280;12600;53.326;-6.298;2023-01-28T02:09:26;102826.31;;;6.77;74.45
24422;BME280;12600;53.326;-6.298;2023-01-28T02:12:20;102839.91;;;6.77;75.12
24422;BME280;12600;53.326;-6.298;2023-01-28T02:15:15;102851.22;;;6.73;75.57
24422;BME280;12600;53.326;-6.298;2023-01-28T02:18:05;102853.00;;;6.80;75.57
24422;BME280;12600;53.326;-6.298;2023-01-28T02:21:48;102835.97;;;6.72;75.66
24422;BME280;12600;53.326;-6.298;2023-01-28T02:28:25;102856.72;;;6.85;76.85
24422;BME280;12600;53.326;-6.298;2023-01-28T02:31:25;102851.28;;;6.85;76.85
24422;BME280;12600;53.326;-6.298;2023-01-28T02:34:21;102852.44;;;6.78;78.29
24422;BME280;12600;53.326;-6.298;2023-01-28T02:37:18;102865.44;;;6.87;79.05
24422;BME280;12600;53.326;-6.298;2023-01-28T02:40:14;102868.16;;;6.87;78.26
24422;BME280;12600;53.326;-6.298;2023-01-28T02:43:07;102869.81;;;6.88;78.77
24422;BME280;12600;53.326;-6.298;2023-01-28T02:45:58;102880.84;;;6.93;79.30
24422;BME280;12600;53.326;-6.298;2023-01-28T02:49:09;102862.28;;;6.90;79.80
24422;BME280;12600;53.326;-6.298;2023-01-28T02:52:36;102848.31;;;6.87;79.41
24422;BME280;12600;53.326;-6.298;2023-01-28T02:55:55;102839.59;;;6.85;80.74
24422;BME280;12600;53.326;-6.298;2023-01-28T02:58:53;102841.81;;;6.88;80.75
24422;BME280;12600;53.326;-6.298;2023-01-28T03:01:48;102829.38;;;6.80;82.15
24422;BME280;12600;53.326;-6.298;2023-01-28T03:04:49;102823.13;;;6.80;82.05
24422;BME280;12600;53.326;-6.298;2023-01-28T03:07:42;102822.91;;;6.81;82.58
24422;BME280;12600;53.326;-6.298;2023-01-28T03:10:31;102811.31;;;6.74;81.96
24422;BME280;12600;53.326;-6.298;2023-01-28T03:13:22;102814.53;;;6.83;82.04
24422;BME280;12600;53.326;-6.298;2023-01-28T03:16:30;102817.03;;;6.84;82.19
24422;BME280;12600;53.326;-6.298;2023-01-28T03:19:40;102801.41;;;6.80;82.16
24422;BME280;12600;53.326;-6.298;2023-01-28T03:22:52;102769.22;;;6.65;82.06
24422;BME280;12600;53.326;-6.298;2023-01-28T03:26:01;102791.59;;;6.79;82.29
24422;BME280;12600;53.326;-6.298;2023-01-28T03:29:13;102788.28;;;6.77;82.84
24422;BME280;12600;53.326;-6.298;2023-01-28T03:32:25;102797.63;;;6.81;82.99
24422;BME280;12600;53.326;-6.298;2023-01-28T03:35:36;102799.41;;;6.87;83.80
24422;BME280;12600;53.326;-6.298;2023-01-28T03:38:43;102811.00;;;6.94;83.46
24422;BME280;12600;53.326;-6.298;2023-01-28T03:41:36;102829.94;;;7.00;83.17
24422;BME280;12600;53.326;-6.298;2023-01-28T03:44:25;102828.19;;;7.06;83.39
24422;BME280;12600;53.326;-6.298;2023-01-28T03:47:32;102824.28;;;7.14;82.90
24422;BME280;12600;53.326;-6.298;2023-01-28T03:50:24;102802.19;;;7.10;82.71
24422;BME280;12600;53.326;-6.298;2023-01-28T03:53:20;102795.84;;;7.16;83.25
24422;BME280;12600;53.326;-6.298;2023-01-28T03:56:11;102801.50;;;7.15;83.45
24422;BME280;12600;53.326;-6.298;2023-01-28T03:59:06;102795.25;;;7.14;83.85
24422;BME280;12600;53.326;-6.298;2023-01-28T04:01:56;102815.84;;;7.22;83.82
24422;BME280;12600;53.326;-6.298;2023-01-28T04:04:46;102812.97;;;7.28;83.82
24422;BME280;12600;53.326;-6.298;2023-01-28T04:07:37;102823.41;;;7.32;83.59
24422;BME280;12600;53.326;-6.298;2023-01-28T04:10:49;102826.94;;;7.32;84.62
24422;BME280;12600;53.326;-6.298;2023-01-28T04:13:44;102830.41;;;7.39;84.21
24422;BME280;12600;53.326;-6.298;2023-01-28T04:16:34;102834.53;;;7.42;83.78
24422;BME280;12600;53.326;-6.298;2023-01-28T04:19:25;102824.72;;;7.41;84.29
24422;BME280;12600;53.326;-6.298;2023-01-28T04:22:16;102816.66;;;7.46;84.02
24422;BME280;12600;53.326;-6.298;2023-01-28T04:25:07;102820.44;;;7.45;84.44
24422;BME280;12600;53.326;-6.298;2023-01-28T04:27:57;102812.28;;;7.45;83.93
24422;BME280;12600;53.326;-6.298;2023-01-28T04:30:51;102808.06;;;7.49;84.47
24422;BME280;12600;53.326;-6.298;2023-01-28T04:33:55;102788.28;;;7.42;84.65
24422;BME280;12600;53.326;-6.298;2023-01-28T04:36:56;102813.25;;;7.50;84.58
24422;BME280;12600;53.326;-6.298;2023-01-28T04:40:12;102795.16;;;7.44;85.32
24422;BME280;12600;53.326;-6.298;2023-01-28T04:43:11;102791.97;;;7.47;85.21
24422;BME280;12600;53.326;-6.298;2023-01-28T04:46:11;102801.78;;;7.48;84.72
24422;BME280;12600;53.326;-6.298;2023-01-28T04:49:08;102804.03;;;7.40;84.92
24422;BME280;12600;53.326;-6.298;2023-01-28T04:52:11;102810.63;;;7.44;84.70
24422;BME280;12600;53.326;-6.298;2023-01-28T04:55:30;102825.78;;;7.40;84.52
24422;BME280;12600;53.326;-6.298;2023-01-28T04:58:22;102826.13;;;7.32;85.56
24422;BME280;12600;53.326;-6.298;2023-01-28T05:01:16;102807.69;;;7.22;85.70
24422;BME280;12600;53.326;-6.298;2023-01-28T05:04:05;102821.97;;;7.29;85.63
24422;BME280;12600;53.326;-6.298;2023-01-28T05:06:57;102825.16;;;7.26;85.70
24422;BME280;12600;53.326;-6.298;2023-01-28T05:09:52;102828.72;;;7.26;85.73
24422;BME280;12600;53.326;-6.298;2023-01-28T05:12:43;102828.81;;;7.20;85.78
24422;BME280;12600;53.326;-6.298;2023-01-28T05:15:34;102838.03;;;7.19;85.47
24422;BME280;12600;53.326;-6.298;2023-01-28T05:18:23;102834.88;;;7.22;85.87
24422;BME280;12600;53.326;-6.298;2023-01-28T05:21:34;102836.13;;;7.19;85.42
24422;BME280;12600;53.326;-6.298;2023-01-28T05:24:28;102840.66;;;7.25;85.59
24422;BME280;12600;53.326;-6.298;2023-01-28T05:27:17;102840.41;;;7.27;85.70
24422;BME280;12600;53.326;-6.298;2023-01-28T05:30:09;102847.25;;;7.29;85.72
24422;BME280;12600;53.326;-6.298;2023-01-28T05:32:59;102843.50;;;7.31;85.81
24422;BME280;12600;53.326;-6.298;2023-01-28T05:35:50;102846.00;;;7.32;85.88
24422;BME280;12600;53.326;-6.298;2023-01-28T05:38:41;102846.00;;;7.32;85.76
24422;BME280;12600;53.326;-6.298;2023-01-28T05:41:30;102849.44;;;7.39;86.31
24422;BME280;12600;53.326;-6.298;2023-01-28T05:44:22;102844.44;;;7.36;86.10
24422;BME280;12600;53.326;-6.298;2023-01-28T05:47:37;102854.88;;;7.51;85.86
24422;BME280;12600;53.326;-6.298;2023-01-28T05:50:47;102838.56;;;7.51;85.91
24422;BME280;12600;53.326;-6.298;2023-01-28T05:53:41;102835.97;;;7.56;85.51
24422;BME280;12600;53.326;-6.298;2023-01-28T05:56:31;102842.34;;;7.62;85.48
24422;BME280;12600;53.326;-6.298;2023-01-28T05:59:21;102833.34;;;7.61;85.67
24422;BME280;12600;53.326;-6.298;2023-01-28T06:02:13;102817.16;;;7.54;86.10
24422;BME280;12600;53.326;-6.298;2023-01-28T06:05:04;102794.81;;;7.41;86.14
24422;BME280;12600;53.326;-6.298;2023-01-28T06:07:55;102829.72;;;7.55;85.71
24422;BME280;12600;53.326;-6.298;2023-01-28T06:10:45;102817.88;;;7.50;85.97
24422;BME280;12600;53.326;-6.298;2023-01-28T06:13:35;102826.50;;;7.47;85.78
24422;BME280;12600;53.326;-6.298;2023-01-28T06:16:44;102837.50;;;7.40;86.73
24422;BME280;12600;53.326;-6.298;2023-01-28T06:19:52;102833.69;;;7.41;87.04
24422;BME280;12600;53.326;-6.298;2023-01-28T06:22:42;102821.41;;;7.39;87.35
24422;BME280;12600;53.326;-6.298;2023-01-28T06:25:33;102820.34;;;7.40;88.04
24422;BME280;12600;53.326;-6.298;2023-01-28T06:28:28;102816.56;;;7.41;87.45
24422;BME280;12600;53.326;-6.298;2023-01-28T06:31:17;102816.81;;;7.39;87.86
24422;BME280;12600;53.326;-6.298;2023-01-28T06:34:08;102812.88;;;7.35;87.59
24422;BME280;12600;53.326;-6.298;2023-01-28T06:36:58;102813.00;;;7.40;87.48
24422;BME280;12600;53.326;-6.298;2023-01-28T06:39:47;102811.22;;;7.34;88.67
24422;BME280;12600;53.326;-6.298;2023-01-28T06:42:38;102814.28;;;7.38;88.34
24422;BME280;12600;53.326;-6.298;2023-01-28T06:45:27;102810.41;;;7.34;87.75
24422;BME280;12600;53.326;-6.298;2023-01-28T06:48:16;102821.88;;;7.36;87.64
24422;BME280;12600;53.326;-6.298;2023-01-28T06:51:05;102815.50;;;7.30;87.85
24422;BME280;12600;53.326;-6.298;2023-01-28T06:53:55;102818.06;;;7.25;88.06
24422;BME280;12600;53.326;-6.298;2023-01-28T06:56:44;102818.91;;;7.25;87.62
24422;BME280;12600;53.326;-6.298;2023-01-28T06:59:35;102804.00;;;7.16;87.84
24422;BME280;12600;53.326;-6.298;2023-01-28T07:02:24;102812.41;;;7.26;87.83
24422;BME280;12600;53.326;-6.298;2023-01-28T07:05:14;102815.50;;;7.30;87.29
24422;BME280;12600;53.326;-6.298;2023-01-28T07:08:04;102810.25;;;7.28;87.33
24422;BME280;12600;53.326;-6.298;2023-01-28T07:10:53;102816.91;;;7.33;87.61
24422;BME280;12600;53.326;-6.298;2023-01-28T07:13:42;102800.00;;;7.31;87.39
24422;BME280;12600;53.326;-6.298;2023-01-28T07:16:33;102812.53;;;7.32;87.54
24422;BME280;12600;53.326;-6.298;2023-01-28T07:19:22;102806.38;;;7.36;87.46
24422;BME280;12600;53.326;-6.298;2023-01-28T07:22:11;102807.44;;;7.35;87.16
24422;BME280;12600;53.326;-6.298;2023-01-28T07:25:01;102804.38;;;7.32;87.90
24422;BME280;12600;53.326;-6.298;2023-01-28T07:27:52;102798.22;;;7.24;87.50
24422;BME280;12600;53.326;-6.298;2023-01-28T07:30:41;102817.97;;;7.32;87.71
24422;BME280;12600;53.326;-6.298;2023-01-28T07:33:32;102807.44;;;7.23;87.80
24422;BME280;12600;53.326;-6.298;2023-01-28T07:36:21;102822.00;;;7.41;88.30
24422;BME280;12600;53.326;-6.298;2023-01-28T07:39:10;102823.78;;;7.47;87.96
24422;BME280;12600;53.326;-6.298;2023-01-28T07:42:00;102817.28;;;7.48;89.08
24422;BME280;12600;53.326;-6.298;2023-01-28T07:44:56;102818.22;;;7.53;88.72
24422;BME280;12600;53.326;-6.298;2023-01-28T07:47:54;102807.31;;;7.53;89.39
24422;BME280;12600;53.326;-6.298;2023-01-28T07:50:45;102807.47;;;7.58;89.19
24422;BME280;12600;53.326;-6.298;2023-01-28T07:53:36;102789.97;;;7.54;88.53
24422;BME280;12600;53.326;-6.298;2023-01-28T07:56:25;102806.63;;;7.58;88.65
24422;BME280;12600;53.326;-6.298;2023-01-28T07:59:16;102807.31;;;7.53;88.87
24422;BME280;12600;53.326;-6.298;2023-01-28T08:02:09;102812.66;;;7.48;88.53
24422;BME280;12600;53.326;-6.298;2023-01-28T08:05:00;102820.94;;;7.53;88.02
24422;BME280;12600;53.326;-6.298;2023-01-28T08:07:51;102824.38;;;7.49;88.36
24422;BME280;12600;53.326;-6.298;2023-01-28T08:10:40;102814.66;;;7.41;88.18
24422;BME280;12600;53.326;-6.298;2023-01-28T08:13:30;102835.50;;;7.47;88.18
24422;BME280;12600;53.326;-6.298;2023-01-28T08:16:20;102834.03;;;7.45;87.61
24422;BME280;12600;53.326;-6.298;2023-01-28T08:19:09;102828.50;;;7.40;88.02
24422;BME280;12600;53.326;-6.298;2023-01-28T08:21:59;102827.78;;;7.33;88.12
24422;BME280;12600;53.326;-6.298;2023-01-28T08:24:49;102839.81;;;7.37;88.44
24422;BME280;12600;53.326;-6.298;2023-01-28T08:27:39;102844.09;;;7.44;87.96
24422;BME280;12600;53.326;-6.298;2023-01-28T08:30:28;102846.97;;;7.49;88.65
24422;BME280;12600;53.326;-6.298;2023-01-28T08:33:19;102841.75;;;7.48;88.41
24422;BME280;12600;53.326;-6.298;2023-01-28T08:36:09;102853.56;;;7.53;88.53
24422;BME280;12600;53.326;-6.298;2023-01-28T08:38:58;102834.78;;;7.52;88.75
24422;BME280;12600;53.326;-6.298;2023-01-28T08:41:49;102845.06;;;7.62;88.89
24422;BME280;12600;53.326;-6.298;2023-01-28T08:44:38;102850.06;;;7.65;88.60
24422;BME280;12600;53.326;-6.298;2023-01-28T08:47:27;102861.41;;;7.73;89.31
24422;BME280;12600;53.326;-6.298;2023-01-28T08:50:17;102841.53;;;7.73;89.17
24422;BME280;12600;53.326;-6.298;2023-01-28T08:53:12;102857.84;;;7.84;89.56
24422;BME280;12600;53.326;-6.298;2023-01-28T08:56:02;102853.13;;;7.92;89.62
24422;BME280;12600;53.326;-6.298;2023-01-28T08:58:52;102858.69;;;7.97;89.62
24422;BME280;12600;53.326;-6.298;2023-01-28T09:01:42;102859.16;;;8.05;89.08
24422;BME280;12600;53.326;-6.298;2023-01-28T09:04:31;102861.75;;;8.12;89.16
24422;BME280;12600;53.326;-6.298;2023-01-28T09:07:20;102850.50;;;8.08;89.17
24422;BME280;12600;53.326;-6.298;2023-01-28T09:10:10;102856.66;;;8.16;89.18
24422;BME280;12600;53.326;-6.298;2023-01-28T09:13:04;102855.00;;;8.14;88.89
24422;BME280;12600;53.326;-6.298;2023-01-28T09:15:55;102858.19;;;8.23;88.75
24422;BME280;12600;53.326;-6.298;2023-01-28T09:18:45;102856.53;;;8.22;88.83
24422;BME280;12600;53.326;-6.298;2023-01-28T09:21:37;102857.47;;;8.28;88.63
24422;BME280;12600;53.326;-6.298;2023-01-28T09:24:26;102855.59;;;8.28;88.88
24422;BME280;12600;53.326;-6.298;2023-01-28T09:27:16;102858.66;;;8.44;89.01
24422;BME280;12600;53.326;-6.298;2023-01-28T09:30:07;102849.16;;;8.46;88.70
24422;BME280;12600;53.326;-6.298;2023-01-28T09:32:58;102849.63;;;8.55;88.55
24422;BME280;12600;53.326;-6.298;2023-01-28T09:35:47;102857.03;;;8.71;88.61
24422;BME280;12600;53.326;-6.298;2023-01-28T09:38:37;102869.19;;;8.80;88.42
24422;BME280;12600;53.326;-6.298;2023-01-28T09:41:34;102864.44;;;8.87;88.53
24422;BME280;12600;53.326;-6.298;2023-01-28T09:44:46;102863.56;;;8.99;88.38
24422;BME280;12600;53.326;-6.298;2023-01-28T09:47:44;102868.63;;;9.07;88.35
24422;BME280;12600;53.326;-6.298;2023-01-28T09:50:40;102870.13;;;9.14;88.19
24422;BME280;12600;53.326;-6.298;2023-01-28T09:53:34;102864.03;;;9.24;88.12
24422;BME280;12600;53.326;-6.298;2023-01-28T09:56:31;102873.72;;;9.32;88.06
24422;BME280;12600;53.326;-6.298;2023-01-28T09:59:22;102869.16;;;9.37;87.75
24422;BME280;12600;53.326;-6.298;2023-01-28T10:02:38;102877.59;;;9.36;87.42
24422;BME280;12600;53.326;-6.298;2023-01-28T10:05:38;102883.41;;;9.39;87.71
24422;BME280;12600;53.326;-6.298;2023-01-28T10:08:54;102878.50;;;9.41;87.93
24422;BME280;12600;53.326;-6.298;2023-01-28T10:12:03;102892.47;;;9.45;88.11
24422;BME280;12600;53.326;-6.298;2023-01-28T10:15:17;102897.09;;;9.44;88.05
24422;BME280;12600;53.326;-6.298;2023-01-28T10:18:11;102897.88;;;9.40;87.99
24422;BME280;12600;53.326;-6.298;2023-01-28T10:21:11;102906.03;;;9.40;88.41
24422;BME280;12600;53.326;-6.298;2023-01-28T10:24:10;102918.03;;;9.39;88.66
24422;BME280;12600;53.326;-6.298;2023-01-28T10:27:09;102900.25;;;9.36;88.75
24422;BME280;12600;53.326;-6.298;2023-01-28T10:30:15;102904.63;;;9.37;89.09
24422;BME280;12600;53.326;-6.298;2023-01-28T10:33:15;102902.38;;;9.34;89.50
24422;BME280;12600;53.326;-6.298;2023-01-28T10:36:09;102909.34;;;9.42;89.63
24422;BME280;12600;53.326;-6.298;2023-01-28T10:38:58;102917.13;;;9.50;89.52
24422;BME280;12600;53.326;-6.298;2023-01-28T10:41:47;102921.88;;;9.55;89.50
24422;BME280;12600;53.326;-6.298;2023-01-28T10:44:46;102915.31;;;9.56;89.69
24422;BME280;12600;53.326;-6.298;2023-01-28T10:47:41;102922.75;;;9.60;89.53
24422;BME280;12600;53.326;-6.298;2023-01-28T10:50:32;102906.06;;;9.57;89.76
24422;BME280;12600;53.326;-6.298;2023-01-28T10:53:35;102918.53;;;9.69;89.98
24422;BME280;12600;53.326;-6.298;2023-01-28T10:56:27;102908.38;;;9.65;89.83
24422;BME280;12600;53.326;-6.298;2023-01-28T10:59:24;102908.44;;;9.70;89.58
24422;BME280;12600;53.326;-6.298;2023-01-28T11:02:27;102903.59;;;9.72;89.81
24422;BME280;12600;53.326;-6.298;2023-01-28T11:05:21;102899.28;;;9.76;89.79
24422;BME280;12600;53.326;-6.298;2023-01-28T11:08:14;102898.59;;;9.86;89.80
24422;BME280;12600;53.326;-6.298;2023-01-28T11:11:13;102876.75;;;9.86;89.85
24422;BME280;12600;53.326;-6.298;2023-01-28T11:14:02;102878.91;;;10.00;89.56
24422;BME280;12600;53.326;-6.298;2023-01-28T11:16:54;102872.75;;;10.10;90.21
24422;BME280;12600;53.326;-6.298;2023-01-28T11:19:45;102866.63;;;10.20;89.77
24422;BME280;12600;53.326;-6.298;2023-01-28T11:22:38;102854.34;;;10.39;90.22
24422;BME280;12600;53.326;-6.298;2023-01-28T11:25:31;102857.63;;;10.63;90.09
24422;BME280;12600;53.326;-6.298;2023-01-28T11:28:22;102862.53;;;10.83;90.11
24422;BME280;12600;53.326;-6.298;2023-01-28T11:31:14;102845.44;;;10.98;90.31
24422;BME280;12600;53.326;-6.298;2023-01-28T11:34:05;102835.47;;;11.13;89.64
24422;BME280;12600;53.326;-6.298;2023-01-28T11:37:01;102834.69;;;11.18;89.10
24422;BME280;12600;53.326;-6.298;2023-01-28T11:40:14;102838.34;;;11.29;88.82
24422;BME280;12600;53.326;-6.298;2023-01-28T11:43:08;102827.13;;;11.30;88.17
24422;BME280;12600;53.326;-6.298;2023-01-28T11:46:38;102836.91;;;11.21;86.92
24422;BME280;12600;53.326;-6.298;2023-01-28T11:49:45;102824.03;;;11.21;87.93
24422;BME280;12600;53.326;-6.298;2023-01-28T11:52:53;102832.22;;;11.16;87.27
24422;BME280;12600;53.326;-6.298;2023-01-28T11:56:13;102845.09;;;11.21;87.62
24422;BME280;12600;53.326;-6.298;2023-01-28T11:59:32;102839.84;;;11.14;86.90
24422;BME280;12600;53.326;-6.298;2023-01-28T12:02:50;102840.28;;;11.01;86.51
24422;BME280;12600;53.326;-6.298;2023-01-28T12:05:47;102845.69;;;10.96;87.02
24422;BME280;12600;53.326;-6.298;2023-01-28T12:08:44;102840.41;;;10.89;87.26
24422;BME280;12600;53.326;-6.298;2023-01-28T12:11:48;102831.75;;;10.71;87.36
24422;BME280;12600;53.326;-6.298;2023-01-28T12:19:06;102827.25;;;10.38;87.53
24422;BME280;12600;53.326;-6.298;2023-01-28T12:22:41;102835.75;;;10.41;87.83
24422;BME280;12600;53.326;-6.298;2023-01-28T12:26:02;102826.09;;;10.33;88.42
24422;BME280;12600;53.326;-6.298;2023-01-28T12:29:04;102830.31;;;10.41;87.96
24422;BME280;12600;53.326;-6.298;2023-01-28T12:32:15;102822.09;;;10.41;88.22
24422;BME280;12600;53.326;-6.298;2023-01-28T12:35:27;102802.66;;;10.38;88.06
24422;BME280;12600;53.326;-6.298;2023-01-28T12:38:30;102812.81;;;10.42;88.38
24422;BME280;12600;53.326;-6.298;2023-01-28T12:41:31;102798.28;;;10.36;88.28
24422;BME280;12600;53.326;-6.298;2023-01-28T12:44:25;102800.84;;;10.43;88.24
24422;BME280;12600;53.326;-6.298;2023-01-28T12:47:21;102795.88;;;10.40;88.52
24422;BME280;12600;53.326;-6.298;2023-01-28T12:50:21;102784.28;;;10.33;88.33
24422;BME280;12600;53.326;-6.298;2023-01-28T12:53:21;102793.56;;;10.32;88.54
24422;BME280;12600;53.326;-6.298;2023-01-28T12:56:16;102785.44;;;10.37;88.71
24422;BME280;12600;53.326;-6.298;2023-01-28T12:59:11;102784.53;;;10.53;88.59
24422;BME280;12600;53.326;-6.298;2023-01-28T13:02:20;102781.66;;;10.65;88.29
24422;BME280;12600;53.326;-6.298;2023-01-28T13:05:14;102767.09;;;10.86;88.33
24422;BME280;12600;53.326;-6.298;2023-01-28T13:08:11;102765.28;;;10.97;87.70
24422;BME280;12600;53.326;-6.298;2023-01-28T13:11:03;102765.91;;;11.04;86.86
24422;BME280;12600;53.326;-6.298;2023-01-28T13:13:53;102776.09;;;11.14;87.11
24422;BME280;12600;53.326;-6.298;2023-01-28T13:16:43;102770.38;;;11.15;86.84
24422;BME280;12600;53.326;-6.298;2023-01-28T13:19:37;102769.78;;;11.08;85.77
24422;BME280;12600;53.326;-6.298;2023-01-28T13:22:30;102765.06;;;11.04;85.91
24422;BME280;12600;53.326;-6.298;2023-01-28T13:25:24;102761.50;;;11.03;85.21
24422;BME280;12600;53.326;-6.298;2023-01-28T13:28:27;102758.72;;;10.98;84.89
24422;BME280;12600;53.326;-6.298;2023-01-28T13:31:22;102761.69;;;11.24;85.56
24422;BME280;12600;53.326;-6.298;2023-01-28T13:34:28;102771.22;;;11.21;84.19
24422;BME280;12600;53.326;-6.298;2023-01-28T13:37:28;102756.84;;;11.36;84.50
24422;BME280;12600;53.326;-6.298;2023-01-28T13:40:26;102749.69;;;11.30;84.35
24422;BME280;12600;53.326;-6.298;2023-01-28T13:43:34;102759.78;;;11.24;84.06
24422;BME280;12600;53.326;-6.298;2023-01-28T13:46:28;102752.47;;;11.03;83.76
24422;BME280;12600;53.326;-6.298;2023-01-28T13:49:25;102753.78;;;10.95;83.57
24422;BME280;12600;53.326;-6.298;2023-01-28T13:52:24;102753.97;;;10.83;84.01
24422;BME280;12600;53.326;-6.298;2023-01-28T13:55:19;102754.66;;;10.74;84.11
24422;BME280;12600;53.326;-6.298;2023-01-28T13:59:12;102748.09;;;10.43;85.32
24422;BME280;12600;53.326;-6.298;2023-01-28T14:09:51;102699.22;;;10.24;85.82
24422;BME280;12600;53.326;-6.298;2023-01-28T14:13:02;102716.78;;;10.28;85.71
24422;BME280;12600;53.326;-6.298;2023-01-28T14:16:41;102712.69;;;10.31;86.16
24422;BME280;12600;53.326;-6.298;2023-01-28T14:19:39;102711.56;;;10.27;86.79
24422;BME280;12600;53.326;-6.298;2023-01-28T14:22:31;102706.72;;;10.34;86.83
24422;BME280;12600;53.326;-6.298;2023-01-28T14:25:27;102713.84;;;10.35;86.40
24422;BME280;12600;53.326;-6.298;2023-01-28T14:28:34;102703.16;;;10.33;86.74
24422;BME280;12600;53.326;-6.298;2023-01-28T14:31:30;102715.78;;;10.40;86.56
24422;BME280;12600;53.326;-6.298;2023-01-28T14:34:26;102717.50;;;10.46;86.78
24422;BME280;12600;53.326;-6.298;2023-01-28T14:37:18;102705.69;;;10.40;86.63
24422;BME280;12600;53.326;-6.298;2023-01-28T14:40:14;102716.69;;;10.45;86.60
24422;BME280;12600;53.326;-6.298;2023-01-28T14:43:06;102715.34;;;10.48;86.58
24422;BME280;12600;53.326;-6.298;2023-01-28T14:46:11;102715.59;;;10.46;86.48
24422;BME280;12600;53.326;-6.298;2023-01-28T14:49:18;102722.78;;;10.52;86.19
24422;BME280;12600;53.326;-6.298;2023-01-28T14:52:35;102721.94;;;10.52;85.99
24422;BME280;12600;53.326;-6.298;2023-01-28T14:55:37;102729.34;;;10.29;86.38
24422;BME280;12600;53.326;-6.298;2023-01-28T14:58:34;102739.63;;;10.44;85.96
24422;BME280;12600;53.326;-6.298;2023-01-28T15:01:28;102726.47;;;10.41;85.98
24422;BME280;12600;53.326;-6.298;2023-01-28T15:04:24;102743.69;;;10.42;85.72
24422;BME280;12600;53.326;-6.298;2023-01-28T15:07:21;102732.97;;;10.35;85.41
24422;BME280;12600;53.326;-6.298;2023-01-28T15:10:17;102741.94;;;10.30;84.77
24422;BME280;12600;53.326;-6.298;2023-01-28T15:13:09;102751.56;;;10.38;85.00
24422;BME280;12600;53.326;-6.298;2023-01-28T15:16:02;102752.34;;;10.33;84.89
24422;BME280;12600;53.326;-6.298;2023-01-28T15:18:51;102754.97;;;10.23;84.77
24422;BME280;12600;53.326;-6.298;2023-01-28T15:21:42;102752.13;;;10.18;84.96
24422;BME280;12600;53.326;-6.298;2023-01-28T15:24:35;102755.44;;;10.20;85.36
24422;BME280;12600;53.326;-6.298;2023-01-28T15:27:28;102748.53;;;10.13;85.39
24422;BME280;12600;53.326;-6.298;2023-01-28T15:30:25;102728.13;;;9.98;85.67
24422;BME280;12600;53.326;-6.298;2023-01-28T15:33:16;102756.38;;;10.09;85.67